Terminal Aerodrome Forecast
Issued by NWS

Home | Current Version | Previous Version | Text Only | Print | Product List | Glossary On
Versions: 1 2 3 4 5 6 7 8 9 10 11 12 13 14 15 16 17 18 19 20 21 22 23 24 25 26 27 28 29 30 31 32 33 34 35 36 37 38 39 40
000
FTUS43 KPAH 161947 AAA
TAFCGI
TAF AMD
KCGI 161947Z 1620/1718 VRB02KT 6SM HZ OVC035
     FM162200 13004KT P6SM OVC025
     FM170500 13005KT P6SM OVC018
     FM170700 15006KT 5SM BR OVC012 PROB30 1707/1708 -RA OVC008
     FM170900 16007KT 3SM -RA BR OVC008 PROB30 1709/1711 -RA OVC004
     FM171100 17006KT 2SM -RA BR OVC005=

USA.gov is the U.S. government's official web portal to all federal, state and local government web resources and services.